createdAt,value
2023-03-25T00:00:44.605Z,10.00
2023-03-25T00:05:46.879Z,9.96
2023-03-25T00:10:56.210Z,9.96
2023-03-25T00:15:58.268Z,9.91
2023-03-25T00:21:04.576Z,9.89
2023-03-25T00:26:06.516Z,9.83
2023-03-25T00:31:12.771Z,9.81
2023-03-25T00:36:14.638Z,9.79
2023-03-25T00:41:28.072Z,9.82
2023-03-25T00:46:31.728Z,9.78
2023-03-25T00:51:33.716Z,9.76
2023-03-25T00:56:35.310Z,9.76
2023-03-25T01:01:39.532Z,9.73
2023-03-25T01:06:44.066Z,9.77
2023-03-25T01:11:46.745Z,9.78
2023-03-25T01:16:48.498Z,9.74
2023-03-25T01:21:50.316Z,9.71
2023-03-25T01:26:51.806Z,9.70
2023-03-25T01:31:53.732Z,9.75
2023-03-25T01:36:55.441Z,9.83
2023-03-25T01:41:57.092Z,9.88
2023-03-25T01:47:03.691Z,9.94
2023-03-25T01:52:23.396Z,9.98
2023-03-25T01:57:25.746Z,10.01
2023-03-25T02:02:34.825Z,10.04
2023-03-25T02:07:42.392Z,10.07
2023-03-25T02:12:45.698Z,10.05
2023-03-25T02:18:02.772Z,10.06
2023-03-25T02:23:16.292Z,10.07
2023-03-25T02:28:25.608Z,10.09
2023-03-25T02:34:05.577Z,10.11
2023-03-25T02:39:31.993Z,10.15
2023-03-25T02:44:55.116Z,10.09
2023-03-25T02:50:07.579Z,9.98
2023-03-25T02:55:12.493Z,9.86
2023-03-25T03:00:17.618Z,9.76
2023-03-25T03:05:47.901Z,9.69
2023-03-25T03:10:55.788Z,9.64
2023-03-25T03:16:34.625Z,9.56
2023-03-25T03:21:54.706Z,9.49
2023-03-25T03:27:08.223Z,9.48
2023-03-25T03:32:20.861Z,9.50
2023-03-25T03:37:37.374Z,9.52
2023-03-25T03:42:44.742Z,9.54
2023-03-25T03:47:54.309Z,9.61
2023-03-25T03:53:05.758Z,9.69
2023-03-25T03:58:16.651Z,9.79
2023-03-25T04:03:24.384Z,9.82
2023-03-25T04:08:37.293Z,9.79
2023-03-25T04:13:44.628Z,9.78
2023-03-25T04:18:47.811Z,9.80
2023-03-25T04:23:49.852Z,9.80
2023-03-25T04:28:51.605Z,9.81
2023-03-25T04:33:53.034Z,9.80
2023-03-25T04:38:55.811Z,9.77
2023-03-25T04:43:58.290Z,9.78
2023-03-25T04:49:00.412Z,9.82
2023-03-25T04:54:01.873Z,9.87
2023-03-25T04:59:04.198Z,9.83
2023-03-25T05:04:06.079Z,9.75
2023-03-25T05:09:10.219Z,9.70
2023-03-25T05:14:14.782Z,9.68
2023-03-25T05:19:18.698Z,9.69
2023-03-25T05:24:20.274Z,9.68
2023-03-25T05:29:21.710Z,9.69
2023-03-25T05:34:25.565Z,9.74
2023-03-25T05:39:27.109Z,9.79
2023-03-25T05:44:28.762Z,9.78
2023-03-25T05:49:30.255Z,9.67
2023-03-25T05:54:31.696Z,9.62
2023-03-25T05:59:33.231Z,9.54
2023-03-25T06:04:37.829Z,9.44
2023-03-25T06:09:46.488Z,9.30
2023-03-25T06:14:53.732Z,9.18
2023-03-25T06:19:55.159Z,9.11
2023-03-25T06:24:56.559Z,9.07
2023-03-25T06:29:58.207Z,9.10
2023-03-25T06:34:59.585Z,9.29
2023-03-25T06:40:01.202Z,9.39
2023-03-25T06:45:04.957Z,9.40
2023-03-25T06:50:19.110Z,9.48
2023-03-25T06:55:20.775Z,9.59
2023-03-25T07:00:24.518Z,9.73
2023-03-25T07:05:26.027Z,9.86
2023-03-25T07:10:27.540Z,10.03
2023-03-25T07:15:29.057Z,10.25
2023-03-25T07:20:30.747Z,10.48
2023-03-25T07:25:32.793Z,10.78
2023-03-25T07:30:34.381Z,11.00
2023-03-25T07:35:36.044Z,10.98
2023-03-25T07:40:37.883Z,10.82
2023-03-25T07:45:44.091Z,10.46
2023-03-25T07:50:46.287Z,10.21
2023-03-25T07:56:13.648Z,10.05
2023-03-25T08:01:15.561Z,9.96
2023-03-25T08:06:16.990Z,9.94
2023-03-25T08:11:18.441Z,9.89
2023-03-25T08:16:19.900Z,9.86
2023-03-25T08:21:27.821Z,9.91
2023-03-25T08:26:30.961Z,9.78
2023-03-25T08:31:47.032Z,9.67
2023-03-25T08:36:50.725Z,9.61
2023-03-25T08:41:54.249Z,9.41
2023-03-25T08:46:56.603Z,9.27
2023-03-25T08:52:00.316Z,9.11
2023-03-25T09:04:21.756Z,8.72
2023-03-25T09:09:23.524Z,8.74
2023-03-25T09:14:25.227Z,8.63
2023-03-25T09:19:26.726Z,8.51
2023-03-25T09:24:28.197Z,8.44
2023-03-25T09:29:32.242Z,8.51
2023-03-25T09:34:34.258Z,8.71
2023-03-25T09:39:35.866Z,8.93
2023-03-25T09:44:58.381Z,9.07
2023-03-25T09:50:06.425Z,9.14
2023-03-25T09:55:15.924Z,9.12
2023-03-25T10:00:25.609Z,9.19
2023-03-25T10:05:54.637Z,9.18
2023-03-25T10:11:26.826Z,9.22
2023-03-25T10:16:51.991Z,9.30
2023-03-25T10:22:09.085Z,9.55
2023-03-25T10:27:26.959Z,9.87
2023-03-25T10:32:38.334Z,10.21
2023-03-25T10:37:42.046Z,10.39
2023-03-25T10:43:05.046Z,10.49
2023-03-25T10:48:19.070Z,10.75
2023-03-25T10:53:24.508Z,11.02
2023-03-25T10:58:26.597Z,11.25
2023-03-25T11:03:33.655Z,11.22
2023-03-25T11:08:35.743Z,11.22
2023-03-25T11:13:37.345Z,11.33
2023-03-25T11:18:40.803Z,11.45
2023-03-25T11:23:51.474Z,10.79
2023-03-25T11:29:07.083Z,9.96
2023-03-25T11:34:22.386Z,9.52
2023-03-25T11:39:23.766Z,9.46
2023-03-25T11:44:33.194Z,9.53
2023-03-25T11:49:38.460Z,9.78
2023-03-25T11:54:41.669Z,9.94
2023-03-25T11:59:44.883Z,10.14
2023-03-25T12:05:04.298Z,10.50
2023-03-25T12:10:06.891Z,10.47
2023-03-25T12:15:26.930Z,10.44
2023-03-25T12:20:44.680Z,10.42
2023-03-25T12:26:14.386Z,10.50
2023-03-25T12:31:49.692Z,10.77
2023-03-25T12:37:21.085Z,10.89
2023-03-25T12:42:34.912Z,10.14
2023-03-25T12:47:41.898Z,9.44
2023-03-25T12:52:46.380Z,9.43
2023-03-25T12:58:01.715Z,9.76
2023-03-25T13:03:16.643Z,9.88
2023-03-25T13:08:30.633Z,10.00
2023-03-25T13:13:35.253Z,10.32
2023-03-25T13:18:36.625Z,10.51
2023-03-25T13:23:40.724Z,10.75
2023-03-25T13:28:47.413Z,10.99
2023-03-25T13:33:56.318Z,11.36
2023-03-25T13:39:04.943Z,11.78
2023-03-25T13:44:24.570Z,12.25
2023-03-25T13:49:45.226Z,12.87
2023-03-25T13:55:04.381Z,12.72
2023-03-25T14:00:52.850Z,12.37
2023-03-25T14:06:08.707Z,12.12
2023-03-25T14:11:16.425Z,11.87
2023-03-25T14:16:28.920Z,11.89
2023-03-25T14:21:39.809Z,11.63
2023-03-25T14:26:54.937Z,11.49
2023-03-25T14:32:17.125Z,11.32
2023-03-25T14:37:28.770Z,10.15
2023-03-25T14:42:42.245Z,8.52
2023-03-25T14:47:52.975Z,8.04
2023-03-25T14:53:01.246Z,7.90
2023-03-25T14:58:07.132Z,7.75
2023-03-25T15:03:12.966Z,7.82
2023-03-25T15:08:17.540Z,7.96
2023-03-25T15:13:25.781Z,8.24
2023-03-25T15:18:36.721Z,8.63
2023-03-25T15:23:47.501Z,8.92
2023-03-25T15:29:04.368Z,9.06
2023-03-25T15:34:44.684Z,9.04
2023-03-25T15:40:12.063Z,8.82
2023-03-25T15:45:42.750Z,9.39
2023-03-25T15:50:57.437Z,9.77
2023-03-25T15:56:06.486Z,9.36
2023-03-25T16:01:27.128Z,9.25
2023-03-25T16:06:30.922Z,9.07
2023-03-25T16:11:32.547Z,9.00
2023-03-25T16:16:37.843Z,9.09
2023-03-25T16:21:39.616Z,9.15
2023-03-25T16:26:47.910Z,9.14
2023-03-25T16:31:52.753Z,9.15
2023-03-25T16:36:56.048Z,9.11
2023-03-25T16:42:24.166Z,9.03
2023-03-25T16:47:25.805Z,8.94
2023-03-25T16:52:30.163Z,8.83
2023-03-25T16:57:39.053Z,8.80
2023-03-25T17:02:41.481Z,8.75
2023-03-25T17:07:43.440Z,8.68
2023-03-25T17:12:50.910Z,8.55
2023-03-25T17:18:00.020Z,8.45
2023-03-25T17:23:10.022Z,8.36
2023-03-25T17:28:38.995Z,8.33
2023-03-25T17:33:48.158Z,8.32
2023-03-25T17:38:53.357Z,8.31
2023-03-25T17:43:55.985Z,8.30
2023-03-25T17:48:58.629Z,8.27
2023-03-25T17:54:00.294Z,8.24
2023-03-25T17:59:04.677Z,8.22
2023-03-25T18:04:06.103Z,8.20
2023-03-25T18:09:21.988Z,8.18
2023-03-25T18:14:24.599Z,8.13
2023-03-25T18:19:27.759Z,8.04
2023-03-25T18:24:29.521Z,8.02
2023-03-25T18:29:31.152Z,8.03
2023-03-25T18:34:32.755Z,8.12
2023-03-25T18:39:34.241Z,8.26
2023-03-25T18:44:35.714Z,8.38
2023-03-25T18:49:37.453Z,8.45
2023-03-25T18:54:38.850Z,8.53
2023-03-25T18:59:40.274Z,8.58
2023-03-25T19:04:54.213Z,8.53
2023-03-25T19:10:02.123Z,8.45
2023-03-25T19:15:03.920Z,8.42
2023-03-25T19:20:06.086Z,8.39
2023-03-25T19:25:08.521Z,8.33
2023-03-25T19:30:13.097Z,8.44
2023-03-25T19:35:15.895Z,8.58
2023-03-25T19:40:20.206Z,8.72
2023-03-25T19:45:22.244Z,8.83
2023-03-25T19:50:31.076Z,8.84
2023-03-25T19:55:33.462Z,8.38
2023-03-25T20:00:35.081Z,7.84
2023-03-25T20:05:36.669Z,7.58
2023-03-25T20:10:40.921Z,7.55
2023-03-25T20:15:44.774Z,7.55
2023-03-25T20:20:46.263Z,7.55
2023-03-25T20:25:50.349Z,7.49
2023-03-25T20:30:52.282Z,7.43
2023-03-25T20:35:54.032Z,7.42
2023-03-25T20:40:55.879Z,7.32
2023-03-25T20:45:57.590Z,7.21
2023-03-25T20:51:01.603Z,7.18
2023-03-25T20:56:03.984Z,7.15
2023-03-25T21:01:05.557Z,7.18
2023-03-25T21:06:13.454Z,7.22
2023-03-25T21:11:22.436Z,7.29
2023-03-25T21:16:23.972Z,7.27
2023-03-25T21:21:25.612Z,7.24
2023-03-25T21:26:27.072Z,7.20
2023-03-25T21:31:29.138Z,7.24
2023-03-25T21:36:32.143Z,7.36
2023-03-25T21:41:33.878Z,7.46
2023-03-25T21:46:36.645Z,7.49
2023-03-25T21:51:42.314Z,7.45
2023-03-25T21:56:43.743Z,7.42
2023-03-25T22:01:45.377Z,7.43
2023-03-25T22:06:46.931Z,7.45
2023-03-25T22:11:48.401Z,7.50
2023-03-25T22:16:49.932Z,7.51
2023-03-25T22:21:51.394Z,7.52
2023-03-25T22:26:52.823Z,7.56
2023-03-25T22:31:55.670Z,7.67
2023-03-25T22:36:57.138Z,7.76
2023-03-25T22:41:58.966Z,7.77
2023-03-25T22:47:00.445Z,7.75
2023-03-25T22:52:01.840Z,7.73
2023-03-25T22:57:03.353Z,7.74
2023-03-25T23:02:04.974Z,7.78
2023-03-25T23:07:08.406Z,7.78
2023-03-25T23:12:12.019Z,7.76
2023-03-25T23:17:13.455Z,7.75
2023-03-25T23:22:17.042Z,7.75
2023-03-25T23:27:18.479Z,7.78
2023-03-25T23:32:20.127Z,7.81
2023-03-25T23:37:21.604Z,7.78
2023-03-25T23:42:23.089Z,7.81
2023-03-25T23:47:36.664Z,7.83
2023-03-25T23:52:38.088Z,7.87
2023-03-25T23:57:39.542Z,7.86
